createdAt,value
2023-04-29T03:30:17.245Z,11.20
2023-04-29T03:32:44.495Z,11.20
2023-04-29T03:35:14.860Z,11.20
2023-04-29T03:37:44.609Z,11.20
2023-04-29T03:40:12.801Z,11.30
2023-04-29T03:42:39.701Z,11.20
2023-04-29T03:45:07.530Z,11.10
2023-04-29T03:47:34.466Z,11.20
2023-04-29T03:50:01.675Z,11.30
2023-04-29T03:52:29.109Z,11.40
2023-04-29T03:54:57.295Z,11.30
2023-04-29T03:57:24.631Z,11.20
2023-04-29T03:59:53.661Z,11.30
2023-04-29T04:02:21.742Z,11.30
2023-04-29T04:04:49.219Z,11.20
2023-04-29T04:07:17.041Z,11.10
2023-04-29T04:09:43.941Z,11.10
2023-04-29T04:12:11.096Z,11.00
2023-04-29T04:14:38.382Z,11.10
2023-04-29T04:17:06.489Z,11.10
2023-04-29T04:19:33.705Z,11.00
2023-04-29T04:22:01.223Z,10.90
2023-04-29T04:24:28.310Z,10.70
2023-04-29T04:26:55.165Z,10.60
2023-04-29T04:29:23.915Z,10.60
2023-04-29T04:31:50.916Z,10.60
2023-04-29T04:34:17.866Z,10.60
2023-04-29T04:36:46.135Z,10.70
2023-04-29T04:39:14.620Z,10.60
2023-04-29T04:41:41.700Z,10.50
2023-04-29T04:44:17.840Z,10.40
2023-04-29T04:46:44.965Z,10.30
2023-04-29T04:49:12.019Z,10.20
2023-04-29T04:51:39.243Z,10.20
2023-04-29T04:54:06.368Z,10.10
2023-04-29T04:56:33.258Z,10.10
2023-04-29T04:59:02.123Z,10.10
2023-04-29T05:01:29.450Z,10.10
2023-04-29T05:03:57.792Z,10.10
2023-04-29T05:06:32.465Z,10.10
2023-04-29T05:08:59.484Z,10.10
2023-04-29T05:11:26.662Z,9.90
2023-04-29T05:13:53.502Z,9.90
2023-04-29T05:16:20.612Z,10.00
2023-04-29T05:18:47.527Z,10.00
2023-04-29T05:21:17.711Z,10.00
2023-04-29T05:23:44.918Z,10.10
2023-04-29T05:26:11.705Z,10.10
2023-04-29T05:28:38.715Z,10.00
2023-04-29T05:31:06.328Z,10.00
2023-04-29T05:33:33.611Z,10.00
2023-04-29T05:36:01.577Z,10.00
2023-04-29T05:38:29.330Z,10.00
2023-04-29T05:40:56.816Z,10.00
2023-04-29T05:43:24.458Z,9.90
2023-04-29T05:45:52.989Z,9.90
2023-04-29T05:48:23.934Z,9.90
2023-04-29T05:50:52.303Z,9.90
2023-04-29T05:53:19.430Z,9.80
2023-04-29T05:55:49.706Z,9.80
2023-04-29T05:58:18.021Z,9.90
2023-04-29T06:00:45.155Z,9.90
2023-04-29T06:03:12.597Z,9.80
2023-04-29T06:05:40.920Z,9.90
2023-04-29T06:08:08.111Z,9.90
2023-04-29T06:10:37.397Z,9.90
2023-04-29T06:13:04.281Z,9.90
2023-04-29T06:15:31.343Z,10.00
2023-04-29T06:17:58.601Z,9.90
2023-04-29T06:20:25.796Z,9.80
2023-04-29T06:22:52.611Z,9.80
2023-04-29T06:25:19.525Z,9.80
2023-04-29T06:27:46.691Z,9.80
2023-04-29T06:30:14.050Z,9.70
2023-04-29T06:32:41.561Z,9.80
2023-04-29T06:35:09.321Z,9.80
2023-04-29T06:37:37.964Z,9.80
2023-04-29T06:40:05.951Z,9.80
2023-04-29T06:42:33.128Z,9.70
2023-04-29T06:45:00.475Z,9.80
2023-04-29T06:47:29.223Z,9.80
2023-04-29T06:49:58.058Z,10.00
2023-04-29T06:52:25.272Z,9.80
2023-04-29T06:54:52.212Z,9.80
2023-04-29T06:57:19.160Z,9.90
2023-04-29T06:59:50.344Z,9.80
2023-04-29T07:02:29.927Z,9.90
2023-04-29T07:04:57.494Z,10.00
2023-04-29T07:07:27.933Z,10.10
2023-04-29T07:10:00.485Z,10.00
2023-04-29T07:12:40.756Z,10.10
2023-04-29T07:15:17.088Z,10.10
2023-04-29T07:17:44.288Z,10.10
2023-04-29T07:20:21.908Z,10.20
2023-04-29T07:22:53.099Z,10.30
2023-04-29T07:25:22.273Z,10.30
2023-04-29T07:28:18.947Z,10.20
2023-04-29T07:30:50.393Z,10.50
2023-04-29T07:33:22.890Z,10.50
2023-04-29T07:35:51.687Z,10.60
2023-04-29T07:38:18.648Z,10.60
2023-04-29T07:40:46.976Z,10.60
2023-04-29T07:43:16.406Z,10.50
2023-04-29T07:45:43.377Z,10.50
2023-04-29T07:48:10.561Z,10.40
2023-04-29T07:50:37.910Z,10.50
2023-04-29T07:53:05.195Z,10.30
2023-04-29T07:55:32.532Z,10.40
2023-04-29T07:58:00.531Z,10.60
2023-04-29T08:00:28.365Z,10.70
2023-04-29T08:02:56.572Z,10.40
2023-04-29T08:05:24.852Z,10.30
2023-04-29T08:07:53.054Z,10.50
2023-04-29T08:10:20.248Z,10.50
2023-04-29T08:12:49.981Z,10.60
2023-04-29T08:15:18.610Z,10.60
2023-04-29T08:17:47.139Z,10.60
2023-04-29T08:20:15.323Z,10.60
2023-04-29T08:22:43.666Z,10.60
2023-04-29T08:25:10.893Z,10.70
2023-04-29T08:27:39.410Z,10.70
2023-04-29T08:30:07.045Z,11.00
2023-04-29T08:32:35.302Z,11.10
2023-04-29T08:35:03.694Z,11.20
2023-04-29T08:37:30.827Z,11.20
2023-04-29T08:40:00.053Z,11.20
2023-04-29T08:42:35.006Z,10.90
2023-04-29T08:45:03.010Z,11.10
2023-04-29T08:47:39.082Z,11.30
2023-04-29T08:50:06.951Z,11.10
2023-04-29T08:52:35.564Z,11.20
2023-04-29T08:55:03.699Z,11.10
2023-04-29T08:57:31.663Z,11.10
2023-04-29T09:00:02.658Z,11.10
2023-04-29T09:02:29.726Z,11.10
2023-04-29T09:05:09.183Z,11.10
2023-04-29T09:07:38.120Z,11.10
2023-04-29T09:10:10.638Z,11.00
2023-04-29T09:12:37.847Z,11.10
2023-04-29T09:15:05.075Z,10.90
2023-04-29T09:17:44.532Z,10.90
2023-04-29T09:20:23.384Z,10.80
2023-04-29T09:22:50.230Z,10.80
2023-04-29T09:25:17.176Z,10.80
2023-04-29T09:27:44.225Z,11.10
2023-04-29T09:30:12.621Z,11.10
2023-04-29T09:32:40.011Z,11.00
2023-04-29T09:35:29.944Z,11.10
2023-04-29T09:38:23.408Z,11.00
2023-04-29T09:43:25.266Z,11.20
2023-04-29T09:45:57.547Z,11.30
2023-04-29T09:48:33.716Z,11.60
2023-04-29T09:51:03.391Z,11.50
2023-04-29T09:53:31.604Z,11.50
2023-04-29T09:56:01.358Z,11.30
2023-04-29T09:58:31.215Z,11.20
2023-04-29T10:01:02.742Z,11.40
2023-04-29T10:03:38.414Z,11.80
2023-04-29T10:06:07.475Z,12.10
2023-04-29T10:08:35.477Z,12.30
2023-04-29T10:11:06.353Z,12.70
2023-04-29T10:13:38.342Z,13.00
2023-04-29T10:16:21.386Z,13.10
2023-04-29T10:18:56.646Z,12.40
2023-04-29T10:21:29.771Z,12.40
2023-04-29T10:23:57.720Z,12.00
2023-04-29T15:31:31.202Z,13.00
2023-04-29T15:33:58.001Z,13.20
2023-04-29T15:36:30.557Z,13.30
2023-04-29T15:38:58.316Z,13.30
2023-04-29T15:41:28.581Z,13.10
2023-04-29T15:43:57.454Z,13.00
2023-04-29T15:46:24.476Z,13.20
2023-04-29T15:48:51.862Z,13.00
2023-04-29T15:51:18.842Z,12.90
2023-04-29T15:53:45.888Z,12.80
2023-04-29T15:56:13.331Z,12.90
2023-04-29T15:58:40.225Z,12.60
2023-04-29T16:01:07.757Z,12.70
2023-04-29T16:03:34.945Z,12.70
2023-04-29T16:06:01.947Z,12.60
2023-04-29T16:08:28.799Z,12.60
2023-04-29T16:10:55.995Z,12.50
2023-04-29T16:13:23.205Z,12.60
2023-04-29T16:15:50.125Z,12.70
2023-04-29T16:18:17.912Z,12.90
2023-04-29T16:20:45.528Z,13.00
2023-04-29T16:23:12.467Z,13.00
2023-04-29T16:25:41.482Z,12.90
2023-04-29T16:28:08.426Z,12.80
2023-04-29T16:30:36.102Z,12.90
2023-04-29T16:33:03.051Z,12.90
2023-04-29T16:35:31.164Z,13.00
2023-04-29T16:37:59.382Z,13.00
2023-04-29T16:40:26.421Z,13.00
2023-04-29T16:42:53.587Z,13.10
2023-04-29T16:45:23.629Z,13.40
2023-04-29T16:47:50.850Z,13.40
2023-04-29T16:50:18.095Z,13.50
2023-04-29T16:52:45.234Z,13.60
2023-04-29T16:55:15.954Z,13.70
2023-04-29T16:57:43.074Z,13.70
2023-04-29T17:00:11.494Z,13.70
2023-04-29T17:02:40.457Z,13.50
2023-04-29T17:05:09.445Z,13.60
2023-04-29T17:07:36.400Z,13.60
2023-04-29T17:10:04.016Z,13.60
2023-04-29T17:12:31.053Z,13.80
2023-04-29T17:14:58.128Z,13.90
2023-04-29T17:17:25.014Z,13.60
2023-04-29T17:19:52.217Z,13.50
2023-04-29T17:22:19.981Z,13.70
2023-04-29T17:24:46.814Z,13.60
2023-04-29T17:27:13.612Z,13.70
2023-04-29T17:29:40.631Z,13.60
2023-04-29T17:32:11.503Z,13.30
2023-04-29T17:34:38.931Z,13.20
2023-04-29T17:37:06.553Z,13.00
2023-04-29T17:39:34.242Z,12.90
2023-04-29T17:42:01.420Z,13.00
2023-04-29T17:44:28.553Z,13.10
2023-04-29T17:46:55.344Z,12.90
2023-04-29T17:49:22.165Z,13.10
2023-04-29T17:51:49.286Z,13.10
2023-04-29T17:54:16.039Z,13.00
2023-04-29T17:56:42.983Z,13.00
2023-04-29T17:59:09.890Z,13.00
2023-04-29T18:01:37.109Z,13.00
2023-04-29T18:04:04.279Z,12.90
2023-04-29T18:06:32.118Z,12.90
2023-04-29T18:08:58.949Z,13.00
2023-04-29T18:11:26.135Z,12.90
2023-04-29T18:13:54.482Z,12.90
2023-04-29T18:16:21.503Z,12.90
2023-04-29T18:18:51.517Z,12.90
2023-04-29T18:21:26.254Z,13.00
2023-04-29T18:23:54.140Z,13.00
2023-04-29T18:26:21.847Z,12.80
2023-04-29T18:28:48.682Z,12.70
2023-04-29T18:31:16.939Z,12.70
2023-04-29T18:33:44.676Z,12.70
2023-04-29T18:36:12.364Z,12.60
2023-04-29T18:38:39.168Z,12.60
2023-04-29T18:41:08.926Z,12.50
2023-04-29T18:43:35.832Z,12.40
2023-04-29T18:46:03.500Z,12.30
2023-04-29T18:48:31.211Z,12.30
2023-04-29T18:51:00.215Z,12.20
2023-04-29T18:53:27.145Z,12.10
2023-04-29T18:55:54.076Z,12.00
2023-04-29T18:58:21.494Z,11.90
2023-04-29T19:00:48.694Z,11.80
2023-04-29T19:03:17.882Z,11.70
2023-04-29T19:05:45.777Z,11.60
2023-04-29T19:08:16.268Z,11.50
2023-04-29T19:10:44.605Z,11.40
2023-04-29T19:13:11.926Z,11.30
2023-04-29T19:15:39.201Z,11.20
2023-04-29T19:18:06.382Z,11.20
2023-04-29T19:20:34.422Z,11.10
2023-04-29T19:23:01.547Z,11.20
2023-04-29T19:25:28.470Z,11.20
2023-04-29T19:27:55.357Z,11.10
2023-04-29T19:30:22.291Z,11.10
2023-04-29T19:32:49.656Z,11.10
2023-04-29T19:35:16.949Z,11.10
2023-04-29T19:37:44.537Z,11.10
2023-04-29T19:40:11.734Z,11.00
2023-04-29T19:42:40.113Z,11.00
2023-04-29T19:45:08.144Z,11.00
2023-04-29T19:47:35.344Z,11.00
2023-04-29T19:50:02.766Z,11.00
2023-04-29T19:52:30.063Z,11.00
2023-04-29T19:54:57.366Z,10.90
2023-04-29T19:57:24.296Z,11.00
2023-04-29T19:59:51.393Z,10.90
2023-04-29T20:02:19.219Z,10.90
2023-04-29T20:04:46.489Z,10.90
2023-04-29T20:07:16.245Z,10.90
2023-04-29T20:09:45.247Z,10.90
2023-04-29T20:12:12.445Z,10.80
2023-04-29T20:14:40.320Z,10.80
2023-04-29T20:17:08.313Z,10.70
2023-04-29T20:19:35.208Z,10.60
2023-04-29T20:22:02.069Z,10.60
2023-04-29T20:24:29.332Z,10.60
2023-04-29T20:26:56.704Z,10.60
2023-04-29T20:29:24.025Z,10.50
2023-04-29T20:31:51.051Z,10.50
2023-04-29T20:34:18.536Z,10.40
2023-04-29T20:36:46.360Z,10.50
2023-04-29T20:39:13.236Z,10.30
2023-04-29T20:41:40.094Z,10.30
2023-04-29T20:44:07.026Z,10.30
2023-04-29T20:46:34.323Z,10.20
2023-04-29T20:49:02.579Z,10.20
2023-04-29T20:51:30.002Z,10.20
2023-04-29T20:53:57.237Z,10.30
2023-04-29T20:56:24.760Z,10.20
2023-04-29T20:58:51.822Z,10.20
2023-04-29T21:01:20.123Z,10.20
2023-04-29T21:03:46.926Z,10.10
2023-04-29T21:06:13.796Z,10.10
2023-04-29T21:08:40.770Z,10.10
2023-04-29T21:11:12.286Z,10.10
2023-04-29T21:13:39.421Z,10.10
2023-04-29T21:16:06.652Z,10.10
2023-04-29T21:18:33.524Z,10.10
2023-04-29T21:21:00.451Z,10.20
2023-04-29T21:23:27.595Z,10.10
2023-04-29T21:25:55.754Z,10.10
2023-04-29T21:28:22.874Z,10.10
2023-04-29T21:30:49.690Z,10.00
2023-04-29T21:33:16.693Z,10.00
2023-04-29T21:35:43.689Z,9.90
2023-04-29T21:38:10.881Z,9.90
2023-04-29T21:40:42.276Z,9.90
2023-04-29T21:43:10.754Z,9.90
2023-04-29T21:45:38.399Z,9.80
2023-04-29T21:48:26.602Z,9.80
2023-04-29T21:50:53.520Z,9.80
2023-04-29T21:53:20.906Z,9.80
2023-04-29T21:55:48.298Z,9.80
2023-04-29T21:58:16.206Z,9.80
2023-04-29T22:00:51.391Z,9.80
2023-04-29T22:03:18.517Z,9.90
2023-04-29T22:05:45.735Z,9.90
2023-04-29T22:08:12.671Z,9.80
2023-04-29T22:10:41.800Z,9.80
2023-04-29T22:13:08.883Z,9.90
2023-04-29T22:15:35.771Z,9.90
2023-04-29T22:18:02.724Z,9.90
2023-04-29T22:20:29.603Z,9.90
2023-04-29T22:22:56.980Z,9.90
2023-04-29T22:25:24.279Z,9.90
2023-04-29T22:27:52.401Z,9.90
2023-04-29T22:30:20.926Z,9.90
2023-04-29T22:32:47.817Z,9.90
2023-04-29T22:35:14.795Z,9.90
2023-04-29T22:37:41.724Z,10.00
2023-04-29T22:40:09.348Z,10.20
2023-04-29T22:42:36.493Z,10.10
2023-04-29T22:45:03.621Z,10.20
2023-04-29T22:47:30.388Z,10.20
2023-04-29T22:49:57.253Z,10.30
2023-04-29T22:52:25.859Z,10.30
2023-04-29T22:54:52.772Z,10.30
2023-04-29T22:57:20.363Z,10.20
2023-04-29T22:59:47.206Z,10.30
2023-04-29T23:02:14.033Z,10.20
2023-04-29T23:04:41.089Z,10.10
2023-04-29T23:07:07.967Z,10.00
2023-04-29T23:09:34.808Z,9.90
2023-04-29T23:12:02.533Z,9.90
2023-04-29T23:14:30.611Z,9.90
2023-04-29T23:16:57.421Z,9.80
2023-04-29T23:19:24.491Z,9.70
2023-04-29T23:21:51.301Z,9.70
2023-04-29T23:24:18.269Z,9.70
2023-04-29T23:26:45.336Z,9.60
2023-04-29T23:29:12.056Z,9.60
2023-04-29T23:31:38.862Z,9.50
2023-04-29T23:34:06.250Z,9.40
2023-04-29T23:36:33.007Z,9.40
2023-04-29T23:39:00.184Z,9.30
2023-04-29T23:41:27.135Z,9.30
2023-04-29T23:43:54.853Z,9.30
2023-04-29T23:46:21.761Z,9.30
2023-04-29T23:48:48.962Z,9.20
2023-04-29T23:51:16.020Z,9.20
2023-04-29T23:53:42.865Z,9.10
2023-04-29T23:56:09.740Z,9.10
2023-04-29T23:58:36.849Z,9.10
